createdAt,value
2018-11-28T00:01:03.220Z,2.80
2018-11-28T00:03:32.876Z,2.00
2018-11-28T00:06:02.506Z,2.10
2018-11-28T00:08:32.292Z,1.90
2018-11-28T00:11:01.974Z,2.10
2018-11-28T00:13:32.646Z,1.90
2018-11-28T00:16:02.303Z,1.70
2018-11-28T00:18:32.962Z,1.80
2018-11-28T00:21:02.788Z,1.60
2018-11-28T00:23:32.454Z,1.77
2018-11-28T00:26:02.195Z,1.83
2018-11-28T00:28:32.015Z,1.83
2018-11-28T00:31:01.686Z,1.77
2018-11-28T00:33:32.215Z,2.10
2018-11-28T00:36:02.021Z,1.67
2018-11-28T00:38:31.779Z,1.80
2018-11-28T00:41:02.195Z,1.73
2018-11-28T00:43:31.884Z,1.83
2018-11-28T00:46:01.676Z,1.83
2018-11-28T00:48:32.192Z,1.60
2018-11-28T00:51:01.711Z,1.70
2018-11-28T00:53:31.528Z,2.00
2018-11-28T00:56:01.283Z,1.70
2018-11-28T00:58:30.938Z,1.60
2018-11-28T01:01:00.673Z,1.67
2018-11-28T01:03:30.326Z,1.13
2018-11-28T01:06:00.006Z,1.50
2018-11-28T01:08:29.599Z,1.70
2018-11-28T01:10:59.352Z,1.70
2018-11-28T01:13:29.119Z,1.70
2018-11-28T01:15:58.699Z,1.50
2018-11-28T01:18:28.359Z,1.93
2018-11-28T01:20:58.004Z,1.70
2018-11-28T01:23:27.867Z,1.70
2018-11-28T01:25:57.516Z,1.40
2018-11-28T01:28:27.295Z,1.50
2018-11-28T01:30:57.051Z,1.53
2018-11-28T01:33:26.805Z,1.43
2018-11-28T01:35:56.565Z,1.40
2018-11-28T01:38:26.316Z,1.50
2018-11-28T01:40:56.298Z,1.60
2018-11-28T01:43:26.047Z,1.50
2018-11-28T01:45:55.839Z,1.40
2018-11-28T01:48:25.539Z,1.23
2018-11-28T01:50:55.192Z,1.40
2018-11-28T01:53:24.964Z,1.40
2018-11-28T01:55:54.984Z,1.43
2018-11-28T01:58:24.778Z,1.20
2018-11-28T02:00:54.514Z,1.33
2018-11-28T02:03:24.399Z,1.33
2018-11-28T02:05:54.168Z,1.13
2018-11-28T02:08:23.908Z,1.40
2018-11-28T02:10:53.838Z,1.37
2018-11-28T02:13:23.539Z,1.40
2018-11-28T02:15:53.316Z,1.20
2018-11-28T02:18:22.985Z,1.20
2018-11-28T02:20:52.680Z,1.10
2018-11-28T02:23:22.548Z,1.10
2018-11-28T02:25:52.195Z,1.30
2018-11-28T02:28:21.847Z,1.20
2018-11-28T02:30:51.583Z,1.37
2018-11-28T02:33:21.373Z,1.17
2018-11-28T02:35:51.084Z,1.07
2018-11-28T02:38:20.980Z,1.10
2018-11-28T02:40:50.608Z,1.20
2018-11-28T02:43:20.169Z,1.10
2018-11-28T02:46:00.807Z,0.93
2018-11-28T02:48:30.526Z,1.13
2018-11-28T02:51:00.283Z,1.23
2018-11-28T02:53:29.816Z,1.10
2018-11-28T02:55:59.721Z,1.00
2018-11-28T02:58:29.450Z,1.00
2018-11-28T03:00:58.972Z,0.93
2018-11-28T03:03:28.789Z,1.07
2018-11-28T03:05:59.487Z,0.97
2018-11-28T03:08:29.323Z,1.10
2018-11-28T03:10:59.081Z,0.83
2018-11-28T03:13:28.982Z,1.00
2018-11-28T03:16:01.311Z,1.00
2018-11-28T03:18:30.939Z,1.20
2018-11-28T03:21:01.242Z,1.00
2018-11-28T03:23:31.000Z,0.70
2018-11-28T03:26:00.964Z,0.90
2018-11-28T03:28:30.592Z,1.20
2018-11-28T03:31:00.425Z,0.80
2018-11-28T03:33:30.234Z,1.23
2018-11-28T03:35:59.904Z,1.00
2018-11-28T03:38:29.721Z,0.90
2018-11-28T03:40:59.681Z,1.03
2018-11-28T03:43:29.443Z,0.90
2018-11-28T03:45:59.227Z,0.77
2018-11-28T03:48:29.024Z,0.90
2018-11-28T03:51:00.524Z,0.90
2018-11-28T03:53:28.848Z,0.90
2018-11-28T03:55:58.547Z,0.80
2018-11-28T03:58:28.266Z,0.90
2018-11-28T04:00:57.854Z,0.73
2018-11-28T04:03:27.276Z,0.90
2018-11-28T04:05:56.983Z,0.90
2018-11-28T04:08:26.841Z,1.00
2018-11-28T04:10:56.692Z,0.70
2018-11-28T04:13:26.302Z,0.83
2018-11-28T04:15:55.941Z,0.87
2018-11-28T04:18:25.807Z,0.70
2018-11-28T04:20:55.469Z,0.80
2018-11-28T04:23:25.247Z,0.80
2018-11-28T04:25:55.132Z,0.90
2018-11-28T04:28:24.943Z,0.83
2018-11-28T04:30:54.659Z,0.80
2018-11-28T04:33:24.387Z,1.00
2018-11-28T04:35:53.957Z,0.77
2018-11-28T04:38:23.687Z,0.90
2018-11-28T04:40:53.537Z,0.70
2018-11-28T04:43:23.330Z,1.10
2018-11-28T04:45:53.099Z,0.70
2018-11-28T04:48:22.816Z,0.87
2018-11-28T04:50:52.670Z,0.90
2018-11-28T04:53:22.408Z,0.67
2018-11-28T04:55:52.181Z,1.00
2018-11-28T04:58:21.842Z,1.00
2018-11-28T05:00:51.556Z,0.90
2018-11-28T05:03:21.184Z,1.00
2018-11-28T05:05:51.084Z,0.90
2018-11-28T05:08:20.837Z,0.90
2018-11-28T05:10:50.591Z,0.80
2018-11-28T05:13:20.411Z,1.00
2018-11-28T05:15:50.365Z,0.90
2018-11-28T05:18:20.066Z,0.83
2018-11-28T05:20:50.348Z,0.80
2018-11-28T05:23:20.049Z,0.80
2018-11-28T05:25:49.710Z,0.93
2018-11-28T05:28:20.107Z,0.80
2018-11-28T05:30:49.834Z,1.13
2018-11-28T05:33:19.552Z,0.97
2018-11-28T05:35:49.714Z,1.10
2018-11-28T05:38:19.503Z,0.90
2018-11-28T05:40:49.485Z,0.90
2018-11-28T05:43:19.205Z,1.17
2018-11-28T05:45:48.895Z,1.00
2018-11-28T05:48:18.822Z,1.03
2018-11-28T05:50:48.550Z,0.90
2018-11-28T05:53:18.339Z,0.90
2018-11-28T05:55:48.029Z,0.97
2018-11-28T05:58:18.237Z,1.10
2018-11-28T06:00:47.875Z,0.90
2018-11-28T06:03:17.670Z,1.07
2018-11-28T06:05:47.525Z,1.00
2018-11-28T06:08:17.232Z,1.00
2018-11-28T06:10:46.951Z,0.90
2018-11-28T06:13:16.526Z,1.50
2018-11-28T06:15:46.352Z,1.20
2018-11-28T06:18:16.078Z,1.10
2018-11-28T06:20:45.838Z,1.00
2018-11-28T06:23:15.700Z,1.80
2018-11-28T06:25:45.530Z,1.50
2018-11-28T06:28:15.175Z,1.50
2018-11-28T06:30:44.718Z,1.00
2018-11-28T06:33:14.290Z,1.20
2018-11-28T06:35:44.197Z,1.20
2018-11-28T06:38:13.990Z,0.97
2018-11-28T06:40:44.518Z,1.40
2018-11-28T06:43:14.997Z,1.37
2018-11-28T06:45:44.694Z,1.60
2018-11-28T06:48:14.510Z,1.50
2018-11-28T06:50:44.420Z,1.30
2018-11-28T06:53:29.694Z,3.50
2018-11-28T06:55:59.427Z,4.13
2018-11-28T06:58:29.006Z,2.80
2018-11-28T07:00:59.592Z,1.70
2018-11-28T07:03:29.266Z,10.17
2018-11-28T07:05:59.179Z,14.00
2018-11-28T07:08:29.098Z,3.67
2018-11-28T07:10:58.887Z,3.30
2018-11-28T07:13:28.553Z,6.23
2018-11-28T07:15:58.267Z,3.17
2018-11-28T07:18:38.828Z,2.37
2018-11-28T07:21:08.491Z,1.60
2018-11-28T07:23:38.295Z,1.50
2018-11-28T07:26:08.202Z,2.73
2018-11-28T07:28:37.840Z,2.33
2018-11-28T07:31:07.633Z,2.37
2018-11-28T07:33:37.553Z,1.90
2018-11-28T07:36:07.318Z,2.20
2018-11-28T07:38:37.065Z,1.90
2018-11-28T07:41:06.799Z,1.47
2018-11-28T07:43:36.505Z,1.60
2018-11-28T07:46:06.299Z,2.90
2018-11-28T07:48:36.199Z,1.90
2018-11-28T07:51:06.003Z,2.00
2018-11-28T07:53:35.658Z,1.70
2018-11-28T07:56:05.523Z,2.37
2018-11-28T07:58:35.201Z,3.07
2018-11-28T08:01:04.932Z,2.30
2018-11-28T08:03:34.677Z,2.07
2018-11-28T08:06:04.434Z,1.53
2018-11-28T08:08:38.323Z,1.30
2018-11-28T08:11:08.669Z,2.50
2018-11-28T08:13:38.309Z,2.17
2018-11-28T08:16:08.505Z,2.27
2018-11-28T08:18:40.630Z,2.20
2018-11-28T08:21:10.205Z,2.87
2018-11-28T08:23:40.131Z,2.33
2018-11-28T08:26:09.664Z,1.63
2018-11-28T08:28:39.317Z,1.67
2018-11-28T08:31:09.946Z,1.87
2018-11-28T08:33:38.826Z,2.10
2018-11-28T08:36:08.719Z,1.80
2018-11-28T08:38:38.222Z,1.90
2018-11-28T08:41:08.846Z,3.30
2018-11-28T08:43:38.439Z,2.57
2018-11-28T08:46:08.295Z,2.43
2018-11-28T08:48:38.055Z,2.30
2018-11-28T08:51:08.418Z,3.00
2018-11-28T08:53:39.206Z,3.50
2018-11-28T08:56:09.049Z,2.90
2018-11-28T08:58:39.412Z,2.60
2018-11-28T09:01:09.031Z,3.23
2018-11-28T09:03:38.691Z,2.37
2018-11-28T09:06:08.814Z,2.60
2018-11-28T09:08:38.577Z,2.40
2018-11-28T09:11:09.459Z,2.40
2018-11-28T09:13:40.079Z,2.33
2018-11-28T09:16:10.187Z,2.13
2018-11-28T09:18:41.350Z,2.93
2018-11-28T09:21:11.030Z,2.53
2018-11-28T09:23:40.810Z,1.80
2018-11-28T09:26:14.852Z,2.00
2018-11-28T09:28:44.824Z,2.50
2018-11-28T09:31:16.449Z,2.17
2018-11-28T09:33:47.490Z,2.60
2018-11-28T09:36:17.978Z,2.33
2018-11-28T09:38:47.543Z,2.73
2018-11-28T09:41:17.332Z,2.43
2018-11-28T09:43:48.127Z,2.13
2018-11-28T09:46:17.724Z,2.27
2018-11-28T09:48:47.606Z,2.13
2018-11-28T09:51:17.423Z,2.73
2018-11-28T09:53:47.565Z,2.80
2018-11-28T09:56:18.659Z,1.80
2018-11-28T09:58:51.219Z,2.03
2018-11-28T10:01:21.054Z,2.00
2018-11-28T10:03:50.769Z,2.07
2018-11-28T10:06:21.925Z,2.10
2018-11-28T10:08:54.640Z,1.70
2018-11-28T10:11:24.327Z,1.77
2018-11-28T10:13:54.991Z,1.73
2018-11-28T10:16:34.189Z,1.70
2018-11-28T10:19:11.128Z,1.70
2018-11-28T10:21:40.781Z,1.60
2018-11-28T10:24:11.668Z,2.40
2018-11-28T10:26:41.329Z,2.07
2018-11-28T10:29:12.651Z,2.40
2018-11-28T10:31:43.309Z,1.70
2018-11-28T10:34:14.484Z,2.37
2018-11-28T10:36:44.479Z,1.87
2018-11-28T10:39:14.310Z,2.30
2018-11-28T10:41:44.264Z,2.83
2018-11-28T10:44:14.306Z,2.70
2018-11-28T10:46:44.333Z,2.27
2018-11-28T10:49:14.022Z,1.90
2018-11-28T10:51:50.296Z,2.00
2018-11-28T10:54:17.458Z,2.43
2018-11-28T10:56:47.430Z,2.30
2018-11-28T10:59:17.243Z,2.10
2018-11-28T11:01:57.072Z,1.97
2018-11-28T11:04:31.540Z,2.17
2018-11-28T11:07:06.157Z,2.10
2018-11-28T11:09:40.946Z,2.23
2018-11-28T11:12:15.535Z,1.80
2018-11-28T11:14:46.394Z,2.50
2018-11-28T11:17:16.216Z,2.43
2018-11-28T11:19:46.114Z,2.40
2018-11-28T11:22:16.011Z,2.17
2018-11-28T11:24:45.698Z,2.37
2018-11-28T11:27:15.559Z,2.20
2018-11-28T11:29:45.188Z,2.50
2018-11-28T11:32:15.134Z,1.83
2018-11-28T11:34:45.428Z,1.97
2018-11-28T11:37:15.374Z,2.60
2018-11-28T11:39:45.259Z,2.33
2018-11-28T11:42:14.890Z,3.57
2018-11-28T11:44:44.650Z,1.80
2018-11-28T11:47:22.519Z,2.00
2018-11-28T11:49:52.542Z,1.73
2018-11-28T11:52:22.414Z,2.30
2018-11-28T11:54:52.242Z,2.30
2018-11-28T11:57:22.108Z,2.73
2018-11-28T11:59:52.099Z,2.23
2018-11-28T12:02:21.981Z,2.80
2018-11-28T12:04:52.030Z,2.57
2018-11-28T12:07:21.912Z,3.03
2018-11-28T12:09:51.856Z,2.77
2018-11-28T12:12:22.016Z,3.20
2018-11-28T12:14:52.161Z,2.50
2018-11-28T12:17:22.090Z,2.00
2018-11-28T12:19:51.767Z,2.33
2018-11-28T12:22:21.826Z,2.60
2018-11-28T12:24:51.584Z,2.23
2018-11-28T12:27:21.366Z,2.30
2018-11-28T12:29:51.376Z,1.87
2018-11-28T12:32:21.083Z,2.37
2018-11-28T12:34:50.923Z,2.13
2018-11-28T12:37:21.820Z,1.70
2018-11-28T12:39:51.891Z,1.50
2018-11-28T12:42:21.390Z,1.90
2018-11-28T12:44:52.224Z,1.70
2018-11-28T12:47:22.306Z,1.83
2018-11-28T12:49:52.729Z,3.70
2018-11-28T12:52:22.732Z,2.10
2018-11-28T12:54:52.652Z,2.00
2018-11-28T12:57:22.436Z,1.73
2018-11-28T12:59:52.468Z,1.80
2018-11-28T13:02:23.132Z,1.90
2018-11-28T13:04:52.767Z,2.40
2018-11-28T13:07:22.652Z,1.60
2018-11-28T13:09:52.506Z,2.30
2018-11-28T13:12:22.276Z,2.00
2018-11-28T13:14:52.130Z,2.60
2018-11-28T13:17:21.739Z,2.27
2018-11-28T13:19:51.476Z,1.97
2018-11-28T13:22:22.156Z,2.50
2018-11-28T13:24:51.671Z,2.70
2018-11-28T13:27:21.818Z,2.07
2018-11-28T13:29:51.382Z,2.10
2018-11-28T13:32:21.293Z,2.20
2018-11-28T13:34:51.143Z,2.10
2018-11-28T13:37:21.035Z,2.00
2018-11-28T13:39:50.770Z,2.20
2018-11-28T13:42:20.517Z,2.00
2018-11-28T13:44:50.514Z,1.80
2018-11-28T13:47:20.343Z,1.80
2018-11-28T13:49:50.242Z,1.67
2018-11-28T13:52:19.935Z,2.30
2018-11-28T13:55:37.774Z,1.60
2018-11-28T13:57:20.629Z,1.80
2018-11-28T13:59:50.382Z,1.50
2018-11-28T14:02:20.208Z,1.63
2018-11-28T14:04:50.237Z,1.80
2018-11-28T14:07:20.171Z,1.83
2018-11-28T14:09:50.232Z,2.30
2018-11-28T14:12:20.020Z,2.23
2018-11-28T14:14:49.995Z,1.83
2018-11-28T14:17:19.866Z,2.00
2018-11-28T14:19:49.649Z,2.60
2018-11-28T14:22:19.596Z,2.50
2018-11-28T14:24:49.423Z,2.20
2018-11-28T14:27:19.062Z,2.30
2018-11-28T14:29:48.862Z,1.93
2018-11-28T14:32:18.542Z,3.03
2018-11-28T14:34:49.036Z,2.20
2018-11-28T14:37:19.448Z,3.00
2018-11-28T14:39:49.520Z,2.27
2018-11-28T14:42:19.420Z,2.43
2018-11-28T14:44:49.224Z,2.67
2018-11-28T14:47:18.913Z,2.90
2018-11-28T14:49:48.977Z,3.10
2018-11-28T14:52:18.654Z,4.00
2018-11-28T14:54:48.331Z,2.70
2018-11-28T14:57:17.896Z,2.70
2018-11-28T14:59:47.719Z,2.80
2018-11-28T15:02:17.402Z,2.40
2018-11-28T15:04:47.119Z,2.87
2018-11-28T15:07:16.902Z,2.60
2018-11-28T15:09:52.955Z,2.43
2018-11-28T15:12:23.034Z,4.07
2018-11-28T15:14:52.724Z,4.07
2018-11-28T15:17:22.433Z,3.30
2018-11-28T15:19:52.194Z,2.37
2018-11-28T15:22:21.908Z,2.63
2018-11-28T15:24:52.757Z,2.50
2018-11-28T15:27:22.599Z,2.43
2018-11-28T15:29:52.179Z,2.40
2018-11-28T15:32:21.997Z,3.07
2018-11-28T15:34:51.735Z,4.17
2018-11-28T15:37:21.517Z,3.33
2018-11-28T15:39:55.799Z,2.60
2018-11-28T15:42:21.527Z,3.77
2018-11-28T15:44:51.283Z,2.93
2018-11-28T15:47:21.188Z,2.40
2018-11-28T15:49:50.906Z,2.13
2018-11-28T15:52:20.700Z,3.00
2018-11-28T15:54:50.750Z,3.00
2018-11-28T15:57:20.605Z,3.33
2018-11-28T15:59:51.461Z,5.40
2018-11-28T16:02:21.319Z,3.93
2018-11-28T16:04:50.952Z,3.60
2018-11-28T16:07:21.015Z,3.00
2018-11-28T16:13:28.983Z,4.20
2018-11-28T16:16:32.874Z,3.70
2018-11-28T16:22:33.808Z,3.27
2018-11-28T16:25:03.991Z,3.13
2018-11-28T16:27:41.770Z,4.23
2018-11-28T16:30:05.197Z,3.77
2018-11-28T16:32:35.021Z,7.10
2018-11-28T16:35:05.084Z,5.77
2018-11-28T16:37:34.966Z,4.00
2018-11-28T16:40:05.285Z,3.13
2018-11-28T16:42:34.990Z,3.83
2018-11-28T16:45:04.747Z,3.33
2018-11-28T16:47:34.332Z,3.30
2018-11-28T16:50:04.003Z,3.60
2018-11-28T16:52:33.808Z,2.83
2018-11-28T16:55:03.449Z,3.60
2018-11-28T16:57:33.507Z,3.83
2018-11-28T17:00:03.460Z,3.20
2018-11-28T17:02:33.205Z,3.10
2018-11-28T17:05:02.927Z,3.60
2018-11-28T17:07:32.611Z,3.83
2018-11-28T17:10:02.830Z,4.87
2018-11-28T17:12:32.763Z,4.53
2018-11-28T17:15:02.536Z,3.50
2018-11-28T17:17:32.119Z,3.00
2018-11-28T17:20:01.711Z,3.47
2018-11-28T17:22:31.846Z,3.10
2018-11-28T17:25:01.448Z,3.33
2018-11-28T17:27:31.304Z,3.47
2018-11-28T17:30:01.140Z,3.40
2018-11-28T17:32:30.882Z,3.53
2018-11-28T17:35:00.539Z,3.07
2018-11-28T17:37:30.329Z,3.40
2018-11-28T17:40:00.155Z,3.97
2018-11-28T17:42:29.822Z,5.87
2018-11-28T17:44:59.365Z,3.50
2018-11-28T17:47:29.041Z,3.33
2018-11-28T17:49:59.017Z,3.53
2018-11-28T17:52:28.667Z,3.83
2018-11-28T17:54:58.668Z,4.20
2018-11-28T17:57:28.438Z,3.73
2018-11-28T17:59:58.024Z,3.33
2018-11-28T18:02:27.771Z,3.70
2018-11-28T18:04:57.631Z,3.40
2018-11-28T18:07:27.351Z,3.63
2018-11-28T18:09:58.054Z,3.40
2018-11-28T18:12:28.019Z,3.87
2018-11-28T18:14:57.797Z,3.93
2018-11-28T18:17:27.405Z,3.30
2018-11-28T18:19:57.139Z,3.80
2018-11-28T18:22:26.847Z,3.53
2018-11-28T18:24:56.743Z,4.47
2018-11-28T18:27:26.573Z,3.97
2018-11-28T18:29:56.336Z,4.07
2018-11-28T18:32:26.086Z,4.23
2018-11-28T18:34:56.314Z,4.03
2018-11-28T18:37:26.144Z,3.60
2018-11-28T18:39:55.710Z,3.20
2018-11-28T18:42:25.529Z,3.40
2018-11-28T18:44:55.459Z,4.70
2018-11-28T18:47:25.375Z,4.17
2018-11-28T18:49:54.955Z,4.20
2018-11-28T18:52:24.691Z,4.40
2018-11-28T18:54:54.782Z,3.80
2018-11-28T18:57:24.513Z,4.47
2018-11-28T18:59:54.391Z,4.50
2018-11-28T19:02:24.320Z,5.87
2018-11-28T19:04:54.235Z,4.40
2018-11-28T19:07:23.926Z,4.67
2018-11-28T19:09:54.708Z,4.70
2018-11-28T19:12:24.329Z,5.03
2018-11-28T19:14:53.987Z,5.13
2018-11-28T19:17:23.595Z,6.20
2018-11-28T19:19:53.506Z,7.10
2018-11-28T19:22:23.211Z,7.10
2018-11-28T19:24:52.915Z,6.10
2018-11-28T19:27:22.980Z,6.07
2018-11-28T19:29:52.767Z,6.33
2018-11-28T19:32:22.457Z,6.00
2018-11-28T19:34:52.538Z,7.40
2018-11-28T19:37:22.282Z,6.60
2018-11-28T19:39:52.139Z,5.73
2018-11-28T19:42:22.011Z,6.23
2018-11-28T19:44:52.119Z,6.57
2018-11-28T19:47:22.084Z,9.17
2018-11-28T19:49:51.782Z,6.07
2018-11-28T19:52:22.240Z,6.00
2018-11-28T19:54:52.163Z,5.70
2018-11-28T19:57:23.554Z,7.60
2018-11-28T19:59:53.363Z,6.77
2018-11-28T20:02:23.003Z,6.20
2018-11-28T20:04:52.668Z,7.07
2018-11-28T20:07:22.388Z,5.63
2018-11-28T20:09:56.141Z,6.63
2018-11-28T20:12:25.803Z,5.90
2018-11-28T20:14:55.446Z,5.90
2018-11-28T20:17:25.094Z,6.93
2018-11-28T20:19:55.026Z,6.00
2018-11-28T20:22:49.433Z,6.70
2018-11-28T20:42:22.024Z,6.53
2018-11-28T20:44:51.751Z,6.23
2018-11-28T20:47:21.548Z,7.00
2018-11-28T20:49:51.280Z,6.37
2018-11-28T20:52:20.883Z,6.07
2018-11-28T20:54:50.776Z,6.20
2018-11-28T20:57:20.503Z,6.60
2018-11-28T20:59:51.169Z,5.87
2018-11-28T21:02:20.930Z,6.53
2018-11-28T21:04:50.638Z,6.40
2018-11-28T21:07:20.526Z,6.40
2018-11-28T21:09:54.328Z,6.07
2018-11-28T21:12:24.278Z,5.83
2018-11-28T21:14:53.954Z,5.97
2018-11-28T21:17:23.788Z,5.73
2018-11-28T21:19:53.590Z,6.33
2018-11-28T21:22:23.302Z,6.47
2018-11-28T21:24:52.889Z,6.03
2018-11-28T21:27:22.510Z,6.23
2018-11-28T21:29:52.118Z,6.27
2018-11-28T21:32:21.935Z,6.63
2018-11-28T21:34:51.732Z,8.20
2018-11-28T21:37:21.316Z,7.20
2018-11-28T21:39:54.566Z,6.03
2018-11-28T21:42:24.626Z,5.60
2018-11-28T21:44:54.507Z,6.20
2018-11-28T21:47:24.840Z,5.90
2018-11-28T21:49:55.013Z,6.07
2018-11-28T21:52:24.754Z,6.10
2018-11-28T21:54:55.548Z,5.90
2018-11-28T21:57:25.183Z,6.70
2018-11-28T21:59:54.982Z,6.33
2018-11-28T22:02:24.800Z,5.67
2018-11-28T22:04:54.437Z,6.60
2018-11-28T22:07:24.337Z,6.80
2018-11-28T22:09:54.019Z,6.73
2018-11-28T22:12:23.864Z,6.23
2018-11-28T22:14:54.391Z,5.77
2018-11-28T22:17:24.283Z,6.60
2018-11-28T22:19:53.996Z,7.00
2018-11-28T22:22:23.686Z,11.57
2018-11-28T22:24:53.504Z,17.17
2018-11-28T22:27:23.273Z,7.00
2018-11-28T22:29:52.913Z,6.60
2018-11-28T22:32:23.859Z,6.80
2018-11-28T22:34:53.581Z,6.30
2018-11-28T22:37:23.376Z,6.23
2018-11-28T22:39:53.194Z,8.70
2018-11-28T22:42:23.006Z,7.13
2018-11-28T22:44:52.641Z,7.10
2018-11-28T22:47:22.414Z,6.00
2018-11-28T22:49:52.116Z,7.27
2018-11-28T22:52:21.866Z,6.33
2018-11-28T22:54:51.523Z,6.37
2018-11-28T22:57:21.295Z,5.70
2018-11-28T22:59:50.952Z,6.53
2018-11-28T23:02:40.530Z,6.10
2018-11-28T23:05:10.464Z,5.63
2018-11-28T23:07:40.300Z,5.63
2018-11-28T23:10:10.290Z,5.57
2018-11-28T23:12:40.170Z,5.87
2018-11-28T23:15:10.711Z,5.10
2018-11-28T23:17:40.564Z,5.03
2018-11-28T23:20:11.254Z,5.00
2018-11-28T23:22:40.982Z,5.23
2018-11-28T23:25:13.189Z,5.20
2018-11-28T23:27:43.884Z,5.33
2018-11-28T23:30:19.001Z,5.33
2018-11-28T23:32:49.124Z,4.87
2018-11-28T23:35:19.339Z,4.87
2018-11-28T23:37:49.731Z,5.40
2018-11-28T23:40:21.352Z,5.03
2018-11-28T23:42:51.238Z,5.37
2018-11-28T23:45:21.295Z,7.63
2018-11-28T23:47:51.719Z,8.97
2018-11-28T23:50:24.804Z,5.70
2018-11-28T23:52:55.255Z,5.30
2018-11-28T23:55:28.788Z,5.10
2018-11-28T23:57:58.702Z,4.77
